Terminal Aerodrome Forecast
Issued by NWS Bismarck, ND

Home | Current Version | Previous Version | Text Only | Print | Product List | Glossary Off
Versions: 1 2 3 4 5 6 7 8 9 10 11 12 13 14 15 16 17 18

743
FTUS43 KBIS 261434 AAA
TAFISN
TAF AMD
KISN 261434Z 2615/2712 29017G24KT P6SM SCT030 BKN050
     FM261800 30018G28KT P6SM SCT050
     FM270200 28010KT P6SM FEW080 SCT130=

USA.gov is the U.S. government's official web portal to all federal, state and local government web resources and services.